Terminal Aerodrome Forecast
Issued by NWS

Home | Current Version | Previous Version | Text Only | Print | Product List | Glossary On
Versions: 1 2 3 4 5 6 7 8 9 10 11 12 13 14 15
088
FTUS42 KMLB 082334
TAFSUA
TAF
KSUA 082334Z 0900/0924 36007KT P6SM SCT025 OVC110
      TEMPO 0900/0904 BKN025
     FM090900 36009KT P6SM VCSH SCT035 OVC080
     FM091500 36012G18KT P6SM VCSH SCT035 OVC100=

USA.gov is the U.S. government's official web portal to all federal, state and local government web resources and services.